sensor_id;sensor_type;location;lat;lon;timestamp;P1;durP1;ratioP1;P2;durP2;ratioP2
21270;SDS011;10795;50.796;3.860;2024-01-16T00:00:56;11.93;;;4.40;;
21270;SDS011;10795;50.796;3.860;2024-01-16T00:03:24;10.10;;;4.35;;
21270;SDS011;10795;50.796;3.860;2024-01-16T00:05:50;9.05;;;4.35;;
21270;SDS011;10795;50.796;3.860;2024-01-16T00:08:16;11.77;;;4.60;;
21270;SDS011;10795;50.796;3.860;2024-01-16T00:10:44;11.85;;;4.18;;
21270;SDS011;10795;50.796;3.860;2024-01-16T00:13:10;10.30;;;4.10;;
21270;SDS011;10795;50.796;3.860;2024-01-16T00:15:38;13.00;;;4.60;;
21270;SDS011;10795;50.796;3.860;2024-01-16T00:18:06;11.27;;;4.32;;
21270;SDS011;10795;50.796;3.860;2024-01-16T00:20:33;10.68;;;4.20;;
21270;SDS011;10795;50.796;3.860;2024-01-16T00:23:01;9.77;;;4.28;;
21270;SDS011;10795;50.796;3.860;2024-01-16T00:25:29;11.70;;;3.85;;
21270;SDS011;10795;50.796;3.860;2024-01-16T00:27:55;11.73;;;4.20;;
21270;SDS011;10795;50.796;3.860;2024-01-16T00:30:23;12.90;;;4.55;;
21270;SDS011;10795;50.796;3.860;2024-01-16T00:32:51;9.57;;;4.47;;
21270;SDS011;10795;50.796;3.860;2024-01-16T00:35:19;12.02;;;4.75;;
21270;SDS011;10795;50.796;3.860;2024-01-16T00:37:45;9.77;;;4.18;;
21270;SDS011;10795;50.796;3.860;2024-01-16T00:40:13;8.73;;;4.57;;
21270;SDS011;10795;50.796;3.860;2024-01-16T00:42:39;17.88;;;4.30;;
21270;SDS011;10795;50.796;3.860;2024-01-16T00:45:07;7.50;;;3.60;;
21270;SDS011;10795;50.796;3.860;2024-01-16T00:47:33;9.63;;;4.10;;
21270;SDS011;10795;50.796;3.860;2024-01-16T00:50:02;12.00;;;4.75;;
21270;SDS011;10795;50.796;3.860;2024-01-16T00:52:28;8.77;;;4.10;;
21270;SDS011;10795;50.796;3.860;2024-01-16T00:54:54;8.75;;;3.80;;
21270;SDS011;10795;50.796;3.860;2024-01-16T00:57:19;8.98;;;4.05;;
21270;SDS011;10795;50.796;3.860;2024-01-16T00:59:46;9.25;;;3.85;;
21270;SDS011;10795;50.796;3.860;2024-01-16T01:02:11;8.85;;;4.30;;
21270;SDS011;10795;50.796;3.860;2024-01-16T01:04:37;6.85;;;3.97;;
21270;SDS011;10795;50.796;3.860;2024-01-16T01:07:06;9.85;;;3.83;;
21270;SDS011;10795;50.796;3.860;2024-01-16T01:09:34;15.07;;;4.07;;
21270;SDS011;10795;50.796;3.860;2024-01-16T01:12:00;7.50;;;3.30;;
21270;SDS011;10795;50.796;3.860;2024-01-16T01:14:28;12.52;;;3.67;;
21270;SDS011;10795;50.796;3.860;2024-01-16T01:16:54;9.18;;;3.70;;
21270;SDS011;10795;50.796;3.860;2024-01-16T01:19:23;10.77;;;3.70;;
21270;SDS011;10795;50.796;3.860;2024-01-16T01:21:51;12.38;;;4.03;;
21270;SDS011;10795;50.796;3.860;2024-01-16T01:24:19;9.15;;;3.88;;
21270;SDS011;10795;50.796;3.860;2024-01-16T01:26:45;11.32;;;4.22;;
21270;SDS011;10795;50.796;3.860;2024-01-16T01:29:10;8.77;;;3.92;;
21270;SDS011;10795;50.796;3.860;2024-01-16T01:31:36;10.18;;;3.72;;
21270;SDS011;10795;50.796;3.860;2024-01-16T01:34:02;12.18;;;4.03;;
21270;SDS011;10795;50.796;3.860;2024-01-16T01:36:29;12.88;;;3.50;;
21270;SDS011;10795;50.796;3.860;2024-01-16T01:39:00;8.60;;;3.50;;
21270;SDS011;10795;50.796;3.860;2024-01-16T01:41:28;9.27;;;4.07;;
21270;SDS011;10795;50.796;3.860;2024-01-16T01:43:54;8.15;;;3.95;;
21270;SDS011;10795;50.796;3.860;2024-01-16T01:46:21;8.43;;;3.63;;
21270;SDS011;10795;50.796;3.860;2024-01-16T01:48:48;9.20;;;3.40;;
21270;SDS011;10795;50.796;3.860;2024-01-16T01:51:16;10.98;;;3.78;;
21270;SDS011;10795;50.796;3.860;2024-01-16T01:53:46;10.52;;;4.03;;
21270;SDS011;10795;50.796;3.860;2024-01-16T01:56:15;10.40;;;4.13;;
21270;SDS011;10795;50.796;3.860;2024-01-16T01:58:43;8.35;;;3.88;;
21270;SDS011;10795;50.796;3.860;2024-01-16T02:01:13;8.32;;;3.90;;
21270;SDS011;10795;50.796;3.860;2024-01-16T02:03:42;9.93;;;3.90;;
21270;SDS011;10795;50.796;3.860;2024-01-16T02:06:11;12.38;;;4.07;;
21270;SDS011;10795;50.796;3.860;2024-01-16T02:08:41;10.23;;;4.13;;
21270;SDS011;10795;50.796;3.860;2024-01-16T02:11:07;10.75;;;4.30;;
21270;SDS011;10795;50.796;3.860;2024-01-16T02:13:33;8.43;;;3.88;;
21270;SDS011;10795;50.796;3.860;2024-01-16T02:16:02;11.65;;;4.20;;
21270;SDS011;10795;50.796;3.860;2024-01-16T02:18:28;7.75;;;3.92;;
21270;SDS011;10795;50.796;3.860;2024-01-16T02:20:59;6.90;;;3.47;;
21270;SDS011;10795;50.796;3.860;2024-01-16T02:23:26;9.23;;;3.85;;
21270;SDS011;10795;50.796;3.860;2024-01-16T02:25:53;8.63;;;3.28;;
21270;SDS011;10795;50.796;3.860;2024-01-16T02:28:20;10.02;;;3.42;;
21270;SDS011;10795;50.796;3.860;2024-01-16T02:30:48;7.75;;;3.58;;
21270;SDS011;10795;50.796;3.860;2024-01-16T02:33:14;17.13;;;8.40;;
21270;SDS011;10795;50.796;3.860;2024-01-16T02:35:42;14.73;;;5.97;;
21270;SDS011;10795;50.796;3.860;2024-01-16T02:38:08;12.13;;;5.28;;
21270;SDS011;10795;50.796;3.860;2024-01-16T02:40:38;7.70;;;4.18;;
21270;SDS011;10795;50.796;3.860;2024-01-16T02:43:04;8.02;;;3.45;;
21270;SDS011;10795;50.796;3.860;2024-01-16T02:45:30;11.68;;;3.63;;
21270;SDS011;10795;50.796;3.860;2024-01-16T02:47:56;9.55;;;3.83;;
21270;SDS011;10795;50.796;3.860;2024-01-16T02:50:21;7.78;;;3.35;;
21270;SDS011;10795;50.796;3.860;2024-01-16T02:52:52;11.73;;;3.85;;
21270;SDS011;10795;50.796;3.860;2024-01-16T02:55:17;9.57;;;3.50;;
21270;SDS011;10795;50.796;3.860;2024-01-16T02:57:45;13.48;;;3.30;;
21270;SDS011;10795;50.796;3.860;2024-01-16T03:00:13;8.30;;;3.45;;
21270;SDS011;10795;50.796;3.860;2024-01-16T03:02:42;12.65;;;3.45;;
21270;SDS011;10795;50.796;3.860;2024-01-16T03:05:10;10.10;;;3.20;;
21270;SDS011;10795;50.796;3.860;2024-01-16T03:07:38;9.30;;;3.70;;
21270;SDS011;10795;50.796;3.860;2024-01-16T03:10:04;7.45;;;2.88;;
21270;SDS011;10795;50.796;3.860;2024-01-16T03:12:33;7.15;;;2.78;;
21270;SDS011;10795;50.796;3.860;2024-01-16T03:14:59;11.05;;;3.42;;
21270;SDS011;10795;50.796;3.860;2024-01-16T03:17:24;9.80;;;3.50;;
21270;SDS011;10795;50.796;3.860;2024-01-16T03:19:50;9.02;;;3.35;;
21270;SDS011;10795;50.796;3.860;2024-01-16T03:22:16;4.72;;;2.70;;
21270;SDS011;10795;50.796;3.860;2024-01-16T03:24:43;8.85;;;2.95;;
21270;SDS011;10795;50.796;3.860;2024-01-16T03:27:11;5.07;;;2.40;;
21270;SDS011;10795;50.796;3.860;2024-01-16T03:29:37;10.57;;;2.88;;
21270;SDS011;10795;50.796;3.860;2024-01-16T03:32:03;4.47;;;2.15;;
21270;SDS011;10795;50.796;3.860;2024-01-16T03:34:30;11.25;;;2.60;;
21270;SDS011;10795;50.796;3.860;2024-01-16T03:36:58;6.10;;;2.97;;
21270;SDS011;10795;50.796;3.860;2024-01-16T03:39:23;12.45;;;3.78;;
21270;SDS011;10795;50.796;3.860;2024-01-16T03:41:51;14.30;;;3.15;;
21270;SDS011;10795;50.796;3.860;2024-01-16T03:44:19;6.63;;;2.67;;
21270;SDS011;10795;50.796;3.860;2024-01-16T03:46:47;9.93;;;2.88;;
21270;SDS011;10795;50.796;3.860;2024-01-16T03:49:13;8.05;;;2.90;;
21270;SDS011;10795;50.796;3.860;2024-01-16T03:51:39;9.32;;;2.85;;
21270;SDS011;10795;50.796;3.860;2024-01-16T03:54:08;10.30;;;2.47;;
21270;SDS011;10795;50.796;3.860;2024-01-16T03:56:36;11.57;;;2.80;;
21270;SDS011;10795;50.796;3.860;2024-01-16T03:59:02;14.02;;;2.80;;
21270;SDS011;10795;50.796;3.860;2024-01-16T04:01:34;8.68;;;2.67;;
21270;SDS011;10795;50.796;3.860;2024-01-16T04:04:03;5.70;;;2.45;;
21270;SDS011;10795;50.796;3.860;2024-01-16T04:06:34;10.03;;;2.90;;
21270;SDS011;10795;50.796;3.860;2024-01-16T04:09:00;5.68;;;2.67;;
21270;SDS011;10795;50.796;3.860;2024-01-16T04:11:26;10.30;;;2.70;;
21270;SDS011;10795;50.796;3.860;2024-01-16T04:13:54;6.10;;;2.85;;
21270;SDS011;10795;50.796;3.860;2024-01-16T04:16:20;7.15;;;2.92;;
21270;SDS011;10795;50.796;3.860;2024-01-16T04:18:48;10.68;;;3.15;;
21270;SDS011;10795;50.796;3.860;2024-01-16T04:21:14;7.53;;;3.22;;
21270;SDS011;10795;50.796;3.860;2024-01-16T04:23:42;9.30;;;3.95;;
21270;SDS011;10795;50.796;3.860;2024-01-16T04:26:10;10.95;;;3.40;;
21270;SDS011;10795;50.796;3.860;2024-01-16T04:28:39;8.52;;;3.33;;
21270;SDS011;10795;50.796;3.860;2024-01-16T04:31:09;6.05;;;3.53;;
21270;SDS011;10795;50.796;3.860;2024-01-16T04:33:37;6.32;;;3.08;;
21270;SDS011;10795;50.796;3.860;2024-01-16T04:36:04;9.38;;;3.25;;
21270;SDS011;10795;50.796;3.860;2024-01-16T04:38:32;7.45;;;2.97;;
21270;SDS011;10795;50.796;3.860;2024-01-16T04:41:03;6.90;;;2.90;;
21270;SDS011;10795;50.796;3.860;2024-01-16T04:43:29;12.75;;;3.58;;
21270;SDS011;10795;50.796;3.860;2024-01-16T04:45:55;8.82;;;3.33;;
21270;SDS011;10795;50.796;3.860;2024-01-16T04:48:21;6.97;;;3.47;;
21270;SDS011;10795;50.796;3.860;2024-01-16T04:50:47;7.70;;;2.92;;
21270;SDS011;10795;50.796;3.860;2024-01-16T04:53:15;8.95;;;3.42;;
21270;SDS011;10795;50.796;3.860;2024-01-16T04:55:41;11.77;;;4.00;;
21270;SDS011;10795;50.796;3.860;2024-01-16T04:58:06;9.27;;;3.80;;
21270;SDS011;10795;50.796;3.860;2024-01-16T05:00:32;8.02;;;2.83;;
21270;SDS011;10795;50.796;3.860;2024-01-16T05:03:03;7.22;;;2.97;;
21270;SDS011;10795;50.796;3.860;2024-01-16T05:05:31;7.75;;;2.97;;
21270;SDS011;10795;50.796;3.860;2024-01-16T05:08:00;11.30;;;3.53;;
21270;SDS011;10795;50.796;3.860;2024-01-16T05:10:28;9.35;;;3.38;;
21270;SDS011;10795;50.796;3.860;2024-01-16T05:12:54;9.52;;;3.58;;
21270;SDS011;10795;50.796;3.860;2024-01-16T05:15:19;5.63;;;3.13;;
21270;SDS011;10795;50.796;3.860;2024-01-16T05:17:48;11.40;;;3.70;;
21270;SDS011;10795;50.796;3.860;2024-01-16T05:20:13;8.65;;;3.75;;
21270;SDS011;10795;50.796;3.860;2024-01-16T05:22:39;9.55;;;3.28;;
21270;SDS011;10795;50.796;3.860;2024-01-16T05:27:35;7.55;;;3.67;;
21270;SDS011;10795;50.796;3.860;2024-01-16T05:30:01;8.35;;;3.35;;
21270;SDS011;10795;50.796;3.860;2024-01-16T05:32:27;12.43;;;3.63;;
21270;SDS011;10795;50.796;3.860;2024-01-16T05:34:53;7.88;;;3.42;;
21270;SDS011;10795;50.796;3.860;2024-01-16T05:37:19;10.38;;;4.05;;
21270;SDS011;10795;50.796;3.860;2024-01-16T05:39:46;11.23;;;3.58;;
21270;SDS011;10795;50.796;3.860;2024-01-16T05:42:12;9.15;;;3.90;;
21270;SDS011;10795;50.796;3.860;2024-01-16T05:44:38;9.18;;;4.05;;
21270;SDS011;10795;50.796;3.860;2024-01-16T05:47:06;16.15;;;5.50;;
21270;SDS011;10795;50.796;3.860;2024-01-16T05:49:34;12.60;;;6.00;;
21270;SDS011;10795;50.796;3.860;2024-01-16T05:52:00;11.13;;;4.68;;
21270;SDS011;10795;50.796;3.860;2024-01-16T05:54:27;9.23;;;4.22;;
21270;SDS011;10795;50.796;3.860;2024-01-16T05:56:55;11.02;;;4.25;;
21270;SDS011;10795;50.796;3.860;2024-01-16T05:59:20;10.55;;;4.35;;
21270;SDS011;10795;50.796;3.860;2024-01-16T06:01:48;9.95;;;4.65;;
21270;SDS011;10795;50.796;3.860;2024-01-16T06:04:14;9.55;;;5.20;;
21270;SDS011;10795;50.796;3.860;2024-01-16T06:06:42;12.98;;;5.90;;
21270;SDS011;10795;50.796;3.860;2024-01-16T06:09:10;16.17;;;6.57;;
21270;SDS011;10795;50.796;3.860;2024-01-16T06:11:39;12.70;;;6.30;;
21270;SDS011;10795;50.796;3.860;2024-01-16T06:14:10;10.32;;;5.53;;
21270;SDS011;10795;50.796;3.860;2024-01-16T06:16:37;14.50;;;7.07;;
21270;SDS011;10795;50.796;3.860;2024-01-16T06:19:03;18.60;;;7.57;;
21270;SDS011;10795;50.796;3.860;2024-01-16T06:21:29;22.40;;;9.15;;
21270;SDS011;10795;50.796;3.860;2024-01-16T06:23:56;18.58;;;8.93;;
21270;SDS011;10795;50.796;3.860;2024-01-16T06:26:22;24.75;;;9.63;;
21270;SDS011;10795;50.796;3.860;2024-01-16T06:28:52;18.45;;;9.40;;
21270;SDS011;10795;50.796;3.860;2024-01-16T06:31:18;19.70;;;8.88;;
21270;SDS011;10795;50.796;3.860;2024-01-16T06:33:44;18.85;;;8.18;;
21270;SDS011;10795;50.796;3.860;2024-01-16T06:36:09;23.70;;;9.02;;
21270;SDS011;10795;50.796;3.860;2024-01-16T06:38:37;16.88;;;8.80;;
21270;SDS011;10795;50.796;3.860;2024-01-16T06:41:09;19.00;;;9.63;;
21270;SDS011;10795;50.796;3.860;2024-01-16T06:43:34;22.92;;;11.30;;
21270;SDS011;10795;50.796;3.860;2024-01-16T06:46:00;27.58;;;11.32;;
21270;SDS011;10795;50.796;3.860;2024-01-16T06:48:29;26.00;;;12.45;;
21270;SDS011;10795;50.796;3.860;2024-01-16T06:50:55;27.90;;;14.02;;
21270;SDS011;10795;50.796;3.860;2024-01-16T06:53:20;30.20;;;14.45;;
21270;SDS011;10795;50.796;3.860;2024-01-16T06:55:48;27.77;;;14.13;;
21270;SDS011;10795;50.796;3.860;2024-01-16T06:58:14;29.25;;;14.43;;
21270;SDS011;10795;50.796;3.860;2024-01-16T07:00:40;26.83;;;13.63;;
21270;SDS011;10795;50.796;3.860;2024-01-16T07:03:08;35.17;;;14.90;;
21270;SDS011;10795;50.796;3.860;2024-01-16T07:05:39;27.48;;;14.00;;
21270;SDS011;10795;50.796;3.860;2024-01-16T07:08:06;34.92;;;16.27;;
21270;SDS011;10795;50.796;3.860;2024-01-16T07:10:35;32.72;;;15.80;;
21270;SDS011;10795;50.796;3.860;2024-01-16T07:13:01;34.58;;;15.52;;
21270;SDS011;10795;50.796;3.860;2024-01-16T07:15:27;26.42;;;14.18;;
21270;SDS011;10795;50.796;3.860;2024-01-16T07:17:53;25.75;;;14.80;;
21270;SDS011;10795;50.796;3.860;2024-01-16T07:20:22;33.15;;;15.77;;
21270;SDS011;10795;50.796;3.860;2024-01-16T07:22:47;31.58;;;15.38;;
21270;SDS011;10795;50.796;3.860;2024-01-16T07:25:13;28.48;;;14.23;;
21270;SDS011;10795;50.796;3.860;2024-01-16T07:27:43;26.48;;;13.70;;
21270;SDS011;10795;50.796;3.860;2024-01-16T07:30:14;26.13;;;13.98;;
21270;SDS011;10795;50.796;3.860;2024-01-16T07:32:40;26.90;;;13.90;;
21270;SDS011;10795;50.796;3.860;2024-01-16T07:35:06;28.38;;;14.40;;
21270;SDS011;10795;50.796;3.860;2024-01-16T07:37:32;27.88;;;13.80;;
21270;SDS011;10795;50.796;3.860;2024-01-16T07:40:00;26.33;;;12.80;;
21270;SDS011;10795;50.796;3.860;2024-01-16T07:42:26;24.65;;;13.30;;
21270;SDS011;10795;50.796;3.860;2024-01-16T07:44:58;26.50;;;13.52;;
21270;SDS011;10795;50.796;3.860;2024-01-16T07:47:25;25.48;;;14.48;;
21270;SDS011;10795;50.796;3.860;2024-01-16T07:49:50;33.95;;;15.60;;
21270;SDS011;10795;50.796;3.860;2024-01-16T07:52:21;29.17;;;14.93;;
21270;SDS011;10795;50.796;3.860;2024-01-16T07:54:47;29.77;;;14.48;;
21270;SDS011;10795;50.796;3.860;2024-01-16T07:57:16;26.75;;;13.73;;
21270;SDS011;10795;50.796;3.860;2024-01-16T07:59:41;28.02;;;13.77;;
21270;SDS011;10795;50.796;3.860;2024-01-16T08:02:10;27.92;;;13.98;;
21270;SDS011;10795;50.796;3.860;2024-01-16T08:04:36;25.65;;;13.40;;
21270;SDS011;10795;50.796;3.860;2024-01-16T08:07:02;31.83;;;12.55;;
21270;SDS011;10795;50.796;3.860;2024-01-16T08:09:28;21.92;;;11.13;;
21270;SDS011;10795;50.796;3.860;2024-01-16T08:11:58;22.45;;;11.52;;
21270;SDS011;10795;50.796;3.860;2024-01-16T08:14:27;27.37;;;10.83;;
21270;SDS011;10795;50.796;3.860;2024-01-16T08:16:54;25.58;;;11.73;;
21270;SDS011;10795;50.796;3.860;2024-01-16T08:19:20;21.35;;;10.70;;
21270;SDS011;10795;50.796;3.860;2024-01-16T08:21:48;24.88;;;10.35;;
21270;SDS011;10795;50.796;3.860;2024-01-16T08:24:17;18.27;;;10.02;;
21270;SDS011;10795;50.796;3.860;2024-01-16T08:26:42;20.90;;;10.30;;
21270;SDS011;10795;50.796;3.860;2024-01-16T08:29:08;18.55;;;9.82;;
21270;SDS011;10795;50.796;3.860;2024-01-16T08:31:39;21.60;;;10.65;;
21270;SDS011;10795;50.796;3.860;2024-01-16T08:34:08;18.17;;;9.25;;
21270;SDS011;10795;50.796;3.860;2024-01-16T08:36:36;21.25;;;10.10;;
21270;SDS011;10795;50.796;3.860;2024-01-16T08:39:05;18.88;;;9.45;;
21270;SDS011;10795;50.796;3.860;2024-01-16T08:41:33;20.73;;;8.25;;
21270;SDS011;10795;50.796;3.860;2024-01-16T08:44:02;20.95;;;9.73;;
21270;SDS011;10795;50.796;3.860;2024-01-16T08:46:31;16.42;;;8.75;;
21270;SDS011;10795;50.796;3.860;2024-01-16T08:48:59;19.90;;;9.93;;
21270;SDS011;10795;50.796;3.860;2024-01-16T08:51:25;21.05;;;10.23;;
21270;SDS011;10795;50.796;3.860;2024-01-16T08:53:55;20.17;;;9.68;;
21270;SDS011;10795;50.796;3.860;2024-01-16T08:56:21;25.75;;;11.30;;
21270;SDS011;10795;50.796;3.860;2024-01-16T08:58:50;24.13;;;12.30;;
21270;SDS011;10795;50.796;3.860;2024-01-16T09:01:18;27.40;;;12.63;;
21270;SDS011;10795;50.796;3.860;2024-01-16T09:03:43;27.25;;;12.35;;
21270;SDS011;10795;50.796;3.860;2024-01-16T09:06:09;25.08;;;12.15;;
21270;SDS011;10795;50.796;3.860;2024-01-16T09:08:38;24.08;;;11.30;;
21270;SDS011;10795;50.796;3.860;2024-01-16T09:11:04;22.65;;;11.52;;
21270;SDS011;10795;50.796;3.860;2024-01-16T09:13:29;21.48;;;10.32;;
21270;SDS011;10795;50.796;3.860;2024-01-16T09:15:55;23.13;;;9.85;;
21270;SDS011;10795;50.796;3.860;2024-01-16T09:18:21;17.40;;;9.02;;
21270;SDS011;10795;50.796;3.860;2024-01-16T09:20:50;14.32;;;7.72;;
21270;SDS011;10795;50.796;3.860;2024-01-16T09:23:18;18.27;;;9.38;;
21270;SDS011;10795;50.796;3.860;2024-01-16T09:25:43;16.92;;;8.23;;
21270;SDS011;10795;50.796;3.860;2024-01-16T09:28:12;18.80;;;8.95;;
21270;SDS011;10795;50.796;3.860;2024-01-16T09:30:38;20.25;;;8.43;;
21270;SDS011;10795;50.796;3.860;2024-01-16T09:33:04;15.20;;;7.97;;
21270;SDS011;10795;50.796;3.860;2024-01-16T09:35:32;13.13;;;7.32;;
21270;SDS011;10795;50.796;3.860;2024-01-16T09:38:00;14.90;;;7.68;;
21270;SDS011;10795;50.796;3.860;2024-01-16T09:40:26;12.48;;;5.93;;
21270;SDS011;10795;50.796;3.860;2024-01-16T09:42:52;17.60;;;7.38;;
21270;SDS011;10795;50.796;3.860;2024-01-16T09:45:21;16.65;;;6.90;;
21270;SDS011;10795;50.796;3.860;2024-01-16T09:47:53;16.17;;;7.55;;
21270;SDS011;10795;50.796;3.860;2024-01-16T09:50:19;19.00;;;8.40;;
21270;SDS011;10795;50.796;3.860;2024-01-16T09:52:48;13.57;;;7.38;;
21270;SDS011;10795;50.796;3.860;2024-01-16T09:55:16;16.45;;;6.55;;
21270;SDS011;10795;50.796;3.860;2024-01-16T09:57:44;12.45;;;6.25;;
21270;SDS011;10795;50.796;3.860;2024-01-16T10:00:13;15.30;;;6.68;;
21270;SDS011;10795;50.796;3.860;2024-01-16T10:02:42;13.25;;;6.75;;
21270;SDS011;10795;50.796;3.860;2024-01-16T10:05:13;14.00;;;6.38;;
21270;SDS011;10795;50.796;3.860;2024-01-16T10:07:42;15.60;;;6.50;;
21270;SDS011;10795;50.796;3.860;2024-01-16T10:10:11;13.05;;;6.40;;
21270;SDS011;10795;50.796;3.860;2024-01-16T10:12:38;15.63;;;6.47;;
21270;SDS011;10795;50.796;3.860;2024-01-16T10:15:08;15.07;;;7.43;;
21270;SDS011;10795;50.796;3.860;2024-01-16T10:20:07;11.45;;;6.10;;
21270;SDS011;10795;50.796;3.860;2024-01-16T10:22:38;13.20;;;6.40;;
21270;SDS011;10795;50.796;3.860;2024-01-16T10:25:09;17.25;;;6.68;;
21270;SDS011;10795;50.796;3.860;2024-01-16T10:27:42;13.70;;;6.53;;
21270;SDS011;10795;50.796;3.860;2024-01-16T10:30:08;13.77;;;6.28;;
21270;SDS011;10795;50.796;3.860;2024-01-16T10:32:36;13.90;;;7.22;;
21270;SDS011;10795;50.796;3.860;2024-01-16T10:40:08;17.25;;;7.82;;
21270;SDS011;10795;50.796;3.860;2024-01-16T10:42:33;17.10;;;8.20;;
21270;SDS011;10795;50.796;3.860;2024-01-16T10:45:02;12.73;;;7.28;;
21270;SDS011;10795;50.796;3.860;2024-01-16T10:47:30;16.98;;;8.25;;
21270;SDS011;10795;50.796;3.860;2024-01-16T10:50:00;21.13;;;9.30;;
21270;SDS011;10795;50.796;3.860;2024-01-16T10:52:28;11.13;;;7.40;;
21270;SDS011;10795;50.796;3.860;2024-01-16T10:54:56;16.13;;;8.95;;
21270;SDS011;10795;50.796;3.860;2024-01-16T10:57:30;17.17;;;8.63;;
21270;SDS011;10795;50.796;3.860;2024-01-16T11:00:03;16.13;;;8.05;;
21270;SDS011;10795;50.796;3.860;2024-01-16T11:02:40;14.18;;;8.20;;
21270;SDS011;10795;50.796;3.860;2024-01-16T11:05:11;15.02;;;7.82;;
21270;SDS011;10795;50.796;3.860;2024-01-16T11:07:41;14.60;;;7.40;;
21270;SDS011;10795;50.796;3.860;2024-01-16T11:10:09;16.02;;;8.75;;
21270;SDS011;10795;50.796;3.860;2024-01-16T11:12:38;16.38;;;7.53;;
21270;SDS011;10795;50.796;3.860;2024-01-16T11:15:11;9.65;;;5.63;;
21270;SDS011;10795;50.796;3.860;2024-01-16T11:18:06;12.90;;;7.03;;
21270;SDS011;10795;50.796;3.860;2024-01-16T11:20:35;14.93;;;7.55;;
21270;SDS011;10795;50.796;3.860;2024-01-16T11:23:15;11.90;;;6.82;;
21270;SDS011;10795;50.796;3.860;2024-01-16T11:31:57;14.10;;;5.18;;
21270;SDS011;10795;50.796;3.860;2024-01-16T11:37:30;10.70;;;5.03;;
21270;SDS011;10795;50.796;3.860;2024-01-16T11:42:44;8.75;;;4.32;;
21270;SDS011;10795;50.796;3.860;2024-01-16T11:48:15;10.82;;;4.22;;
21270;SDS011;10795;50.796;3.860;2024-01-16T11:50:42;9.55;;;3.80;;
21270;SDS011;10795;50.796;3.860;2024-01-16T11:53:11;6.28;;;3.10;;
21270;SDS011;10795;50.796;3.860;2024-01-16T11:56:12;8.73;;;3.60;;
21270;SDS011;10795;50.796;3.860;2024-01-16T12:01:44;11.30;;;3.80;;
21270;SDS011;10795;50.796;3.860;2024-01-16T12:04:11;7.47;;;3.72;;
21270;SDS011;10795;50.796;3.860;2024-01-16T12:06:39;11.10;;;3.97;;
21270;SDS011;10795;50.796;3.860;2024-01-16T12:11:43;8.85;;;3.78;;
21270;SDS011;10795;50.796;3.860;2024-01-16T12:14:22;12.70;;;3.72;;
21270;SDS011;10795;50.796;3.860;2024-01-16T12:16:48;8.27;;;3.50;;
21270;SDS011;10795;50.796;3.860;2024-01-16T12:19:17;9.10;;;4.25;;
21270;SDS011;10795;50.796;3.860;2024-01-16T12:21:48;8.02;;;4.10;;
21270;SDS011;10795;50.796;3.860;2024-01-16T12:24:15;13.43;;;4.22;;
21270;SDS011;10795;50.796;3.860;2024-01-16T12:26:44;8.93;;;3.92;;
21270;SDS011;10795;50.796;3.860;2024-01-16T12:29:10;9.85;;;4.10;;
21270;SDS011;10795;50.796;3.860;2024-01-16T12:31:38;8.65;;;3.92;;
21270;SDS011;10795;50.796;3.860;2024-01-16T12:34:09;11.40;;;4.20;;
21270;SDS011;10795;50.796;3.860;2024-01-16T12:36:37;7.72;;;3.22;;
21270;SDS011;10795;50.796;3.860;2024-01-16T12:39:05;6.45;;;4.07;;
21270;SDS011;10795;50.796;3.860;2024-01-16T12:41:37;9.68;;;3.08;;
21270;SDS011;10795;50.796;3.860;2024-01-16T12:44:12;6.78;;;2.97;;
21270;SDS011;10795;50.796;3.860;2024-01-16T12:46:41;7.40;;;2.58;;
21270;SDS011;10795;50.796;3.860;2024-01-16T12:49:10;8.10;;;2.72;;
21270;SDS011;10795;50.796;3.860;2024-01-16T12:51:36;9.77;;;2.53;;
21270;SDS011;10795;50.796;3.860;2024-01-16T12:54:11;9.15;;;2.95;;
21270;SDS011;10795;50.796;3.860;2024-01-16T12:56:38;5.38;;;2.30;;
21270;SDS011;10795;50.796;3.860;2024-01-16T12:59:10;7.43;;;2.75;;
21270;SDS011;10795;50.796;3.860;2024-01-16T13:01:45;7.38;;;3.03;;
21270;SDS011;10795;50.796;3.860;2024-01-16T13:04:11;4.68;;;2.70;;
21270;SDS011;10795;50.796;3.860;2024-01-16T13:06:40;10.70;;;2.78;;
21270;SDS011;10795;50.796;3.860;2024-01-16T13:09:11;4.93;;;2.38;;
21270;SDS011;10795;50.796;3.860;2024-01-16T13:11:53;9.23;;;3.30;;
21270;SDS011;10795;50.796;3.860;2024-01-16T13:14:24;8.00;;;2.63;;
21270;SDS011;10795;50.796;3.860;2024-01-16T13:16:52;5.90;;;3.27;;
21270;SDS011;10795;50.796;3.860;2024-01-16T13:19:26;6.35;;;2.92;;
21270;SDS011;10795;50.796;3.860;2024-01-16T13:22:23;9.82;;;3.17;;
21270;SDS011;10795;50.796;3.860;2024-01-16T13:25:00;5.70;;;3.20;;
21270;SDS011;10795;50.796;3.860;2024-01-16T13:27:40;4.60;;;2.60;;
21270;SDS011;10795;50.796;3.860;2024-01-16T13:30:24;5.90;;;3.05;;
21270;SDS011;10795;50.796;3.860;2024-01-16T13:33:05;5.13;;;2.85;;
21270;SDS011;10795;50.796;3.860;2024-01-16T13:35:51;6.43;;;2.90;;
21270;SDS011;10795;50.796;3.860;2024-01-16T13:38:33;5.15;;;2.67;;
21270;SDS011;10795;50.796;3.860;2024-01-16T13:40:59;8.13;;;2.92;;
21270;SDS011;10795;50.796;3.860;2024-01-16T13:43:27;4.60;;;3.05;;
21270;SDS011;10795;50.796;3.860;2024-01-16T13:46:07;5.35;;;2.70;;
21270;SDS011;10795;50.796;3.860;2024-01-16T13:48:39;12.75;;;3.78;;
21270;SDS011;10795;50.796;3.860;2024-01-16T13:51:07;6.15;;;3.05;;
21270;SDS011;10795;50.796;3.860;2024-01-16T13:53:49;6.13;;;2.70;;
21270;SDS011;10795;50.796;3.860;2024-01-16T13:56:23;8.25;;;3.28;;
21270;SDS011;10795;50.796;3.860;2024-01-16T13:58:51;5.38;;;2.65;;
21270;SDS011;10795;50.796;3.860;2024-01-16T14:04:06;4.85;;;2.67;;
21270;SDS011;10795;50.796;3.860;2024-01-16T14:06:48;4.38;;;2.47;;
21270;SDS011;10795;50.796;3.860;2024-01-16T14:09:27;6.88;;;3.15;;
21270;SDS011;10795;50.796;3.860;2024-01-16T14:12:06;5.00;;;2.67;;
21270;SDS011;10795;50.796;3.860;2024-01-16T14:14:33;4.40;;;2.75;;
21270;SDS011;10795;50.796;3.860;2024-01-16T14:17:22;4.95;;;2.53;;
21270;SDS011;10795;50.796;3.860;2024-01-16T14:20:01;7.53;;;3.20;;
21270;SDS011;10795;50.796;3.860;2024-01-16T14:22:31;6.63;;;2.92;;
21270;SDS011;10795;50.796;3.860;2024-01-16T14:25:02;6.80;;;3.38;;
21270;SDS011;10795;50.796;3.860;2024-01-16T14:27:55;6.65;;;2.75;;
21270;SDS011;10795;50.796;3.860;2024-01-16T14:30:39;9.13;;;3.05;;
21270;SDS011;10795;50.796;3.860;2024-01-16T14:33:16;8.52;;;3.33;;
21270;SDS011;10795;50.796;3.860;2024-01-16T14:35:56;7.93;;;3.13;;
21270;SDS011;10795;50.796;3.860;2024-01-16T14:38:35;8.13;;;3.10;;
21270;SDS011;10795;50.796;3.860;2024-01-16T14:41:04;9.32;;;3.40;;
21270;SDS011;10795;50.796;3.860;2024-01-16T14:43:33;7.65;;;3.50;;
21270;SDS011;10795;50.796;3.860;2024-01-16T14:46:11;7.88;;;3.42;;
21270;SDS011;10795;50.796;3.860;2024-01-16T14:48:55;4.90;;;2.63;;
21270;SDS011;10795;50.796;3.860;2024-01-16T14:51:30;4.95;;;3.38;;
21270;SDS011;10795;50.796;3.860;2024-01-16T14:54:03;7.78;;;3.13;;
21270;SDS011;10795;50.796;3.860;2024-01-16T14:56:32;8.30;;;3.78;;
21270;SDS011;10795;50.796;3.860;2024-01-16T14:59:12;8.80;;;3.60;;
21270;SDS011;10795;50.796;3.860;2024-01-16T15:01:59;6.65;;;3.70;;
21270;SDS011;10795;50.796;3.860;2024-01-16T15:04:43;8.90;;;4.15;;
21270;SDS011;10795;50.796;3.860;2024-01-16T15:07:18;5.45;;;3.45;;
21270;SDS011;10795;50.796;3.860;2024-01-16T15:10:13;7.22;;;4.10;;
21270;SDS011;10795;50.796;3.860;2024-01-16T15:12:45;10.00;;;4.93;;
21270;SDS011;10795;50.796;3.860;2024-01-16T15:15:27;8.93;;;4.30;;
21270;SDS011;10795;50.796;3.860;2024-01-16T15:17:59;6.03;;;3.50;;
21270;SDS011;10795;50.796;3.860;2024-01-16T15:20:50;10.87;;;4.23;;
21270;SDS011;10795;50.796;3.860;2024-01-16T15:23:25;9.55;;;4.30;;